createdAt,value
2023-04-02T00:02:22.535Z,101300.00
2023-04-02T00:05:18.183Z,101298.19
2023-04-02T00:07:48.988Z,101299.94
2023-04-02T00:10:36.692Z,101301.88
2023-04-02T00:13:31.770Z,101296.56
2023-04-02T00:15:59.997Z,101302.78
2023-04-02T00:18:27.693Z,101298.44
2023-04-02T00:21:09.448Z,101314.13
2023-04-02T00:23:38.856Z,101317.66
2023-04-02T00:26:24.572Z,101320.31
2023-04-02T00:28:52.006Z,101324.03
2023-04-02T00:31:19.839Z,101324.22
2023-04-02T00:33:46.893Z,101332.03
2023-04-02T00:36:13.498Z,101332.84
2023-04-02T00:38:43.772Z,101329.53
2023-04-02T00:41:14.721Z,101346.13
2023-04-02T00:43:44.620Z,101347.03
2023-04-02T00:46:15.279Z,101348.78
2023-04-02T00:48:48.970Z,101361.00
2023-04-02T00:51:27.964Z,101367.16
2023-04-02T00:53:56.372Z,101360.03
2023-04-02T00:56:27.412Z,101361.03
2023-04-02T00:58:55.680Z,101375.16
2023-04-02T01:01:25.762Z,101370.84
2023-04-02T01:03:58.017Z,101370.00
2023-04-02T01:06:28.958Z,101376.25
2023-04-02T01:09:19.537Z,101386.75
2023-04-02T01:12:28.497Z,101390.38
2023-04-02T01:15:12.254Z,101387.84
2023-04-02T01:17:42.933Z,101394.88
2023-04-02T01:20:33.794Z,101409.75
2023-04-02T01:23:03.170Z,101415.97
2023-04-02T01:25:38.631Z,101410.78
2023-04-02T01:28:22.865Z,101419.41
2023-04-02T01:30:55.308Z,101422.91
2023-04-02T01:33:24.237Z,101419.50
2023-04-02T01:36:14.378Z,101422.91
2023-04-02T01:38:47.956Z,101428.22
2023-04-02T01:41:25.134Z,101434.25
2023-04-02T01:44:30.713Z,101437.84
2023-04-02T01:47:00.791Z,101438.81
2023-04-02T01:49:27.484Z,101441.53
2023-04-02T01:51:56.813Z,101455.50
2023-04-02T01:54:23.971Z,101452.13
2023-04-02T01:56:51.380Z,101456.50
2023-04-02T01:59:20.174Z,101467.00
2023-04-02T02:02:07.791Z,101473.19
2023-04-02T02:04:34.609Z,101460.16
2023-04-02T02:07:01.606Z,101450.56
2023-04-02T02:09:31.085Z,101478.59
2023-04-02T02:11:59.039Z,101477.78
2023-04-02T02:14:28.160Z,101481.41
2023-04-02T02:16:57.816Z,101489.28
2023-04-02T02:19:38.766Z,101500.53
2023-04-02T02:22:14.190Z,101496.16
2023-04-02T02:24:41.165Z,101492.78
2023-04-02T02:27:22.771Z,101506.91
2023-04-02T02:29:53.204Z,101504.31
2023-04-02T02:32:21.419Z,101510.47
2023-04-02T02:34:58.940Z,101518.38
2023-04-02T02:37:29.674Z,101514.91
2023-04-02T02:39:58.696Z,101519.25
2023-04-02T02:42:35.304Z,101522.81
2023-04-02T02:45:06.313Z,101525.47
2023-04-02T02:47:38.233Z,101533.31
2023-04-02T02:50:08.020Z,101540.22
2023-04-02T02:52:39.261Z,101537.72
2023-04-02T02:55:12.722Z,101546.56
2023-04-02T02:57:43.973Z,101556.13
2023-04-02T03:00:11.816Z,101559.53
2023-04-02T03:02:40.407Z,101566.56
2023-04-02T03:05:08.123Z,101567.56
2023-04-02T03:07:34.938Z,101572.88
2023-04-02T03:10:13.486Z,101581.59
2023-04-02T03:12:45.852Z,101584.28
2023-04-02T03:15:23.559Z,101586.94
2023-04-02T03:17:57.990Z,101591.50
2023-04-02T03:20:56.413Z,101594.00
2023-04-02T03:23:39.673Z,101591.34
2023-04-02T03:26:18.644Z,101601.91
2023-04-02T03:28:54.775Z,101610.72
2023-04-02T03:31:31.063Z,101614.28
2023-04-02T03:34:01.432Z,101622.09
2023-04-02T03:36:28.882Z,101624.78
2023-04-02T03:39:13.754Z,101637.94
2023-04-02T03:41:55.953Z,101640.59
2023-04-02T03:44:54.775Z,101648.47
2023-04-02T03:47:49.811Z,101660.72
2023-04-02T03:50:37.530Z,101665.25
2023-04-02T03:53:04.726Z,101671.22
2023-04-02T03:55:34.696Z,101673.84
2023-04-02T03:58:39.737Z,101681.91
2023-04-02T04:01:20.655Z,101684.47
2023-04-02T04:03:56.270Z,101694.16
2023-04-02T04:06:29.365Z,101700.31
2023-04-02T04:09:01.877Z,101705.50
2023-04-02T04:11:34.936Z,101709.88
2023-04-02T04:14:07.153Z,101722.06
2023-04-02T04:16:41.573Z,101718.66
2023-04-02T04:19:18.190Z,101723.00
2023-04-02T04:21:46.181Z,101722.09
2023-04-02T04:24:20.394Z,101734.38
2023-04-02T04:27:52.857Z,101735.28
2023-04-02T04:30:29.249Z,101737.97
2023-04-02T04:33:04.169Z,101737.97
2023-04-02T04:35:39.217Z,101741.47
2023-04-02T04:38:12.154Z,101757.19
2023-04-02T04:40:44.766Z,101755.44
2023-04-02T04:43:16.439Z,101748.44
2023-04-02T04:46:12.899Z,101757.22
2023-04-02T04:49:04.617Z,101766.91
2023-04-02T04:51:38.518Z,101773.81
2023-04-02T04:54:05.211Z,101778.25
2023-04-02T04:56:32.400Z,101780.88
2023-04-02T04:59:19.275Z,101795.72
2023-04-02T05:01:48.663Z,101797.53
2023-04-02T05:04:21.917Z,101794.88
2023-04-02T05:06:59.998Z,101807.34
2023-04-02T05:09:34.320Z,101805.63
2023-04-02T05:12:17.230Z,101819.59
2023-04-02T05:15:08.986Z,101824.03
2023-04-02T05:17:42.926Z,101828.38
2023-04-02T05:20:30.031Z,101842.34
2023-04-02T05:23:03.812Z,101845.84
2023-04-02T05:25:31.781Z,101859.88
2023-04-02T05:28:20.233Z,101858.97
2023-04-02T05:30:54.454Z,101872.16
2023-04-02T05:33:24.843Z,101865.19
2023-04-02T05:35:59.554Z,101876.59
2023-04-02T05:38:32.209Z,101865.22
2023-04-02T05:41:00.205Z,101875.75
2023-04-02T05:43:28.294Z,101883.59
2023-04-02T05:45:57.775Z,101889.69
2023-04-02T05:48:32.492Z,101882.72
2023-04-02T05:50:59.856Z,101899.28
2023-04-02T05:53:33.942Z,101899.28
2023-04-02T05:56:32.024Z,101906.22
2023-04-02T05:59:10.644Z,101911.50
2023-04-02T06:02:00.231Z,101918.53
2023-04-02T06:04:31.333Z,101918.50
2023-04-02T06:07:06.041Z,101927.25
2023-04-02T06:09:51.446Z,101928.97
2023-04-02T06:12:23.993Z,101939.47
2023-04-02T06:14:50.609Z,101938.59
2023-04-02T06:17:19.413Z,101950.88
2023-04-02T06:19:47.852Z,101959.59
2023-04-02T06:22:23.404Z,101970.13
2023-04-02T06:24:57.958Z,101982.34
2023-04-02T06:27:26.564Z,101982.38
2023-04-02T06:29:55.628Z,101988.53
2023-04-02T06:32:24.167Z,101987.66
2023-04-02T06:34:50.898Z,101998.09
2023-04-02T06:37:27.342Z,102002.47
2023-04-02T06:39:54.809Z,102011.25
2023-04-02T06:42:24.885Z,102013.84
2023-04-02T06:44:51.642Z,102022.63
2023-04-02T06:47:27.370Z,102032.22
2023-04-02T06:49:56.921Z,102030.47
2023-04-02T06:52:27.402Z,102033.97
2023-04-02T06:54:53.890Z,102037.47
2023-04-02T06:57:20.831Z,102038.31
2023-04-02T06:59:47.390Z,102041.78
2023-04-02T07:02:25.128Z,102052.28
2023-04-02T07:04:51.880Z,102048.81
2023-04-02T07:07:18.404Z,102061.88
2023-04-02T07:09:44.888Z,102067.97
2023-04-02T07:12:12.765Z,102072.38
2023-04-02T07:14:39.282Z,102078.47
2023-04-02T07:17:05.849Z,102085.44
2023-04-02T07:19:32.412Z,102090.69
2023-04-02T07:21:58.913Z,102090.69
2023-04-02T07:24:25.538Z,102101.19
2023-04-02T07:26:52.086Z,102111.66
2023-04-02T07:29:19.896Z,102106.41
2023-04-02T07:31:46.653Z,102114.25
2023-04-02T07:34:13.214Z,102122.13
2023-04-02T07:36:39.812Z,102121.25
2023-04-02T07:39:06.349Z,102139.56
2023-04-02T07:41:32.854Z,102140.44
2023-04-02T07:43:59.417Z,102142.19
2023-04-02T07:46:26.572Z,102150.03
2023-04-02T07:48:53.320Z,102156.16
2023-04-02T07:51:22.480Z,102164.00
2023-04-02T07:53:55.722Z,102164.88
2023-04-02T07:56:24.327Z,102169.25
2023-04-02T07:58:50.957Z,102170.13
2023-04-02T08:01:24.370Z,102174.50
2023-04-02T08:03:53.728Z,102176.25
2023-04-02T08:06:21.278Z,102179.75
2023-04-02T08:08:47.898Z,102189.31
2023-04-02T08:11:14.448Z,102196.31
2023-04-02T08:13:41.461Z,102197.22
2023-04-02T08:16:08.494Z,102202.44
2023-04-02T08:18:35.297Z,102206.81
2023-04-02T08:21:02.016Z,102212.03
2023-04-02T08:23:29.000Z,102216.41
2023-04-02T08:25:55.944Z,102220.81
2023-04-02T08:28:22.991Z,102226.03
2023-04-02T08:30:49.608Z,102225.16
2023-04-02T08:33:17.981Z,102221.63
2023-04-02T08:35:48.631Z,102218.13
2023-04-02T08:38:16.786Z,102226.88
2023-04-02T08:40:45.836Z,102233.00
2023-04-02T08:43:33.626Z,102234.75
2023-04-02T08:46:00.506Z,102247.88
2023-04-02T08:48:27.313Z,102246.13
2023-04-02T08:50:54.104Z,102252.22
2023-04-02T08:53:27.339Z,102261.84
2023-04-02T08:56:09.808Z,102262.72
2023-04-02T08:58:41.562Z,102275.81
2023-04-02T09:01:15.822Z,102283.72
2023-04-02T09:03:45.665Z,102292.41
2023-04-02T09:06:16.646Z,102290.66
2023-04-02T09:08:44.454Z,102303.75
2023-04-02T09:11:39.551Z,102303.78
2023-04-02T09:14:14.854Z,102303.78
2023-04-02T09:16:48.058Z,102311.59
2023-04-02T09:19:30.003Z,102311.63
2023-04-02T09:21:59.935Z,102316.88
2023-04-02T09:24:26.551Z,102331.72
2023-04-02T09:26:53.344Z,102326.50
2023-04-02T09:29:40.167Z,102318.66
2023-04-02T09:32:28.063Z,102316.03
2023-04-02T09:35:28.737Z,102330.88
2023-04-02T09:38:07.374Z,102330.00
2023-04-02T09:40:44.111Z,102337.00
2023-04-02T09:43:16.830Z,102339.63
2023-04-02T09:45:44.734Z,102344.84
2023-04-02T09:48:24.744Z,102336.66
2023-04-02T09:51:12.599Z,102339.75
2023-04-02T09:53:45.926Z,102345.00
2023-04-02T09:56:24.215Z,102355.81
2023-04-02T09:59:16.898Z,102359.50
2023-04-02T10:01:56.713Z,102366.63
2023-04-02T10:04:47.216Z,102355.63
2023-04-02T10:07:37.995Z,102355.22
2023-04-02T10:10:19.312Z,102359.44
2023-04-02T10:12:50.352Z,102360.22
2023-04-02T10:15:23.088Z,102355.97
2023-04-02T10:17:57.658Z,102370.38
2023-04-02T10:20:24.659Z,102369.09
2023-04-02T10:22:51.256Z,102368.09
2023-04-02T10:25:20.338Z,102372.53
2023-04-02T10:27:46.824Z,102372.34
2023-04-02T10:30:19.384Z,102377.88
2023-04-02T10:32:55.109Z,102380.91
2023-04-02T10:35:21.686Z,102389.41
2023-04-02T10:38:13.594Z,102396.47
2023-04-02T10:40:48.318Z,102400.81
2023-04-02T10:43:39.178Z,102411.47
2023-04-02T10:46:32.150Z,102410.84
2023-04-02T10:49:14.159Z,102404.31
2023-04-02T10:51:46.663Z,102412.41
2023-04-02T10:54:50.825Z,102413.78
2023-04-02T10:57:40.466Z,102415.41
2023-04-02T11:00:16.802Z,102404.66
2023-04-02T11:03:09.503Z,102412.38
2023-04-02T11:05:51.316Z,102422.34
2023-04-02T11:08:38.442Z,102413.03
2023-04-02T11:11:14.172Z,102417.38
2023-04-02T11:14:00.492Z,102415.72
2023-04-02T11:16:27.877Z,102410.22
2023-04-02T11:19:19.472Z,102424.38
2023-04-02T11:22:00.279Z,102422.38
2023-04-02T11:24:31.725Z,102420.66
2023-04-02T11:27:10.513Z,102424.56
2023-04-02T11:30:06.177Z,102428.31
2023-04-02T11:32:39.503Z,102436.41
2023-04-02T11:35:32.224Z,102432.00
2023-04-02T11:38:10.929Z,102437.53
2023-04-02T11:40:45.091Z,102435.81
2023-04-02T11:43:30.448Z,102431.06
2023-04-02T11:45:58.149Z,102442.72
2023-04-02T11:48:36.190Z,102439.47
2023-04-02T11:51:22.466Z,102444.81
2023-04-02T11:53:53.926Z,102444.91
2023-04-02T11:56:44.207Z,102456.56
2023-04-02T11:59:29.087Z,102460.31
2023-04-02T12:02:32.887Z,102477.44
2023-04-02T12:05:10.274Z,102470.94
2023-04-02T12:07:53.390Z,102476.59
2023-04-02T12:10:22.763Z,102479.91
2023-04-02T12:12:50.572Z,102480.59
2023-04-02T12:15:45.755Z,102478.25
2023-04-02T12:18:24.614Z,102468.13
2023-04-02T12:20:56.485Z,102477.03
2023-04-02T12:23:31.276Z,102471.09
2023-04-02T12:26:01.334Z,102464.44
2023-04-02T12:28:29.157Z,102462.09
2023-04-02T12:31:09.425Z,102465.28
2023-04-02T12:33:38.183Z,102467.78
2023-04-02T12:36:19.352Z,102479.03
2023-04-02T12:38:52.036Z,102475.59
2023-04-02T12:41:32.153Z,102475.59
2023-04-02T12:44:23.174Z,102482.66
2023-04-02T12:46:51.268Z,102475.75
2023-04-02T12:49:26.827Z,102482.16
2023-04-02T12:51:54.514Z,102487.00
2023-04-02T12:54:21.539Z,102493.75
2023-04-02T12:56:49.284Z,102492.38
2023-04-02T12:59:39.057Z,102493.00
2023-04-02T13:02:22.338Z,102490.09
2023-04-02T13:04:51.244Z,102493.03
2023-04-02T13:07:20.240Z,102498.94
2023-04-02T13:09:49.983Z,102497.50
2023-04-02T13:12:34.793Z,102490.16
2023-04-02T13:15:03.848Z,102492.16
2023-04-02T13:17:42.210Z,102495.34
2023-04-02T13:20:54.737Z,102491.31
2023-04-02T13:23:30.308Z,102498.81
2023-04-02T13:26:01.756Z,102487.72
2023-04-02T13:28:28.701Z,102496.16
2023-04-02T13:30:55.454Z,102493.50
2023-04-02T13:33:22.028Z,102495.72
2023-04-02T13:35:48.639Z,102489.41
2023-04-02T13:38:15.136Z,102490.88
2023-04-02T13:40:41.970Z,102503.22
2023-04-02T13:43:18.876Z,102500.84
2023-04-02T13:45:48.991Z,102502.16
2023-04-02T13:48:18.064Z,102505.16
2023-04-02T13:50:45.116Z,102497.09
2023-04-02T13:53:26.250Z,102510.84
2023-04-02T13:55:53.570Z,102517.00
2023-04-02T13:58:20.196Z,102518.78
2023-04-02T14:00:47.482Z,102519.44
2023-04-02T14:03:18.550Z,102520.69
2023-04-02T14:05:57.464Z,102529.50
2023-04-02T14:08:50.643Z,102523.50
2023-04-02T14:11:47.386Z,102528.94
2023-04-02T14:14:26.282Z,102538.19
2023-04-02T14:17:17.402Z,102535.59
2023-04-02T14:19:52.970Z,102551.44
2023-04-02T14:22:32.235Z,102547.56
2023-04-02T14:25:37.214Z,102539.69
2023-04-02T14:28:09.688Z,102549.09
2023-04-02T14:30:52.806Z,102547.66
2023-04-02T14:33:56.703Z,102555.22
2023-04-02T14:36:58.607Z,102557.66
2023-04-02T14:40:04.338Z,102552.75
2023-04-02T14:42:36.096Z,102559.88
2023-04-02T14:45:11.014Z,102555.03
2023-04-02T14:47:42.997Z,102559.94
2023-04-02T14:50:22.573Z,102560.84
2023-04-02T14:52:52.583Z,102566.97
2023-04-02T14:55:27.539Z,102576.28
2023-04-02T14:57:55.579Z,102570.47
2023-04-02T15:00:27.993Z,102576.56
2023-04-02T15:03:23.613Z,102571.06
2023-04-02T15:05:54.901Z,102568.97
2023-04-02T15:08:37.573Z,102580.69
2023-04-02T15:11:19.305Z,102562.41
2023-04-02T15:13:47.176Z,102579.50
2023-04-02T15:16:19.374Z,102568.03
2023-04-02T15:18:47.146Z,102575.34
2023-04-02T15:21:16.750Z,102564.28
2023-04-02T15:24:21.664Z,102573.25
2023-04-02T15:26:51.223Z,102568.06
2023-04-02T15:29:37.193Z,102564.25
2023-04-02T15:32:30.481Z,102567.19
2023-04-02T15:35:28.603Z,102577.88
2023-04-02T15:38:22.740Z,102579.47
2023-04-02T15:41:04.898Z,102571.28
2023-04-02T15:43:37.395Z,102576.06
2023-04-02T15:46:16.342Z,102573.84
2023-04-02T15:49:04.739Z,102582.91
2023-04-02T15:51:35.277Z,102577.59
2023-04-02T15:54:20.679Z,102581.25
2023-04-02T15:57:02.340Z,102589.59
2023-04-02T15:59:44.177Z,102589.75
2023-04-02T16:02:38.727Z,102597.78
2023-04-02T16:05:37.712Z,102604.47
2023-04-02T16:08:14.083Z,102601.19
2023-04-02T16:10:42.963Z,102611.50
2023-04-02T16:13:16.187Z,102602.63
2023-04-02T16:15:48.084Z,102595.38
2023-04-02T16:18:32.835Z,102601.03
2023-04-02T16:21:01.658Z,102611.34
2023-04-02T16:23:36.970Z,102618.59
2023-04-02T16:26:23.705Z,102621.69
2023-04-02T16:29:19.237Z,102615.13
2023-04-02T16:32:03.713Z,102630.53
2023-04-02T16:34:52.048Z,102628.44
2023-04-02T16:37:31.094Z,102626.50
2023-04-02T16:40:20.955Z,102624.78
2023-04-02T16:43:13.240Z,102635.19
2023-04-02T16:46:20.277Z,102643.50
2023-04-02T16:49:00.041Z,102636.94
2023-04-02T16:51:38.243Z,102640.63
2023-04-02T16:54:23.547Z,102651.84
2023-04-02T16:57:08.254Z,102655.88
2023-04-02T16:59:44.430Z,102665.59
2023-04-02T17:02:36.084Z,102666.72
2023-04-02T17:05:27.126Z,102671.63
2023-04-02T17:08:21.922Z,102687.66
2023-04-02T17:11:07.960Z,102685.81
2023-04-02T17:13:41.405Z,102685.09
2023-04-02T17:16:22.316Z,102690.81
2023-04-02T17:18:51.541Z,102696.38
2023-04-02T17:21:25.224Z,102708.94
2023-04-02T17:23:57.602Z,102709.06
2023-04-02T17:26:29.552Z,102707.00
2023-04-02T17:28:58.309Z,102709.19
2023-04-02T17:31:27.574Z,102711.94
2023-04-02T17:33:54.173Z,102725.03
2023-04-02T17:36:29.857Z,102724.66
2023-04-02T17:39:08.942Z,102727.44
2023-04-02T17:41:44.513Z,102740.91
2023-04-02T17:44:20.392Z,102729.53
2023-04-02T17:47:16.204Z,102741.31
2023-04-02T17:50:26.623Z,102740.63
2023-04-02T17:53:19.164Z,102740.56
2023-04-02T17:56:17.399Z,102747.59
2023-04-02T17:58:49.955Z,102753.09
2023-04-02T18:01:34.026Z,102760.22
2023-04-02T18:04:27.094Z,102769.19
2023-04-02T18:07:38.422Z,102772.84
2023-04-02T18:10:07.889Z,102773.81
2023-04-02T18:13:05.408Z,102777.28
2023-04-02T18:15:42.408Z,102778.91
2023-04-02T18:18:31.321Z,102787.97
2023-04-02T18:21:18.997Z,102783.72
2023-04-02T18:24:04.122Z,102798.75
2023-04-02T18:27:02.322Z,102801.41
2023-04-02T18:29:47.611Z,102805.06
2023-04-02T18:32:39.185Z,102811.28
2023-04-02T18:35:27.492Z,102809.66
2023-04-02T18:38:20.340Z,102819.31
2023-04-02T18:40:55.827Z,102811.47
2023-04-02T18:43:48.151Z,102818.50
2023-04-02T18:46:24.326Z,102823.84
2023-04-02T18:49:15.491Z,102830.00
2023-04-02T18:51:42.048Z,102830.88
2023-04-02T18:54:08.532Z,102835.31
2023-04-02T18:56:38.220Z,102838.88
2023-04-02T18:59:35.380Z,102836.31
2023-04-02T19:02:29.443Z,102842.50
2023-04-02T19:05:04.058Z,102848.72
2023-04-02T19:07:34.031Z,102840.84
2023-04-02T19:10:07.877Z,102853.97
2023-04-02T19:12:35.585Z,102859.31
2023-04-02T19:15:02.647Z,102869.91
2023-04-02T19:17:29.223Z,102865.50
2023-04-02T19:20:11.009Z,102872.59
2023-04-02T19:22:43.488Z,102875.28
2023-04-02T19:25:28.795Z,102883.19
2023-04-02T19:28:04.359Z,102887.56
2023-04-02T19:31:08.728Z,102885.88
2023-04-02T19:33:50.932Z,102890.28
2023-04-02T19:36:29.581Z,102888.56
2023-04-02T19:39:29.154Z,102896.50
2023-04-02T19:42:07.804Z,102899.13
2023-04-02T19:44:34.366Z,102902.66
2023-04-02T19:47:01.020Z,102898.28
2023-04-02T19:49:32.942Z,102903.56
2023-04-02T19:51:59.427Z,102908.84
2023-04-02T19:54:26.305Z,102903.59
2023-04-02T19:56:52.851Z,102911.50
2023-04-02T19:59:19.368Z,102912.41
2023-04-02T20:01:46.680Z,102917.66
2023-04-02T20:04:13.753Z,102929.06
2023-04-02T20:06:40.412Z,102919.41
2023-04-02T20:09:08.509Z,102924.72
2023-04-02T20:11:36.651Z,102926.47
2023-04-02T20:14:03.209Z,102925.59
2023-04-02T20:16:29.784Z,102929.09
2023-04-02T20:18:56.569Z,102933.47
2023-04-02T20:21:23.057Z,102939.63
2023-04-02T20:23:53.576Z,102941.38
2023-04-02T20:26:20.115Z,102938.75
2023-04-02T20:28:46.658Z,102945.75
2023-04-02T20:31:16.814Z,102950.16
2023-04-02T20:33:47.971Z,102950.16
2023-04-02T20:36:16.798Z,102952.75
2023-04-02T20:38:43.474Z,102958.03
2023-04-02T20:41:10.382Z,102970.31
2023-04-02T20:43:40.343Z,102964.16
2023-04-02T20:46:09.516Z,102966.78
2023-04-02T20:48:37.655Z,102969.38
2023-04-02T20:51:06.615Z,102972.91
2023-04-02T20:53:35.243Z,102978.16
2023-04-02T20:56:23.431Z,102983.38
2023-04-02T20:58:50.004Z,102978.13
2023-04-02T21:01:24.681Z,102986.88
2023-04-02T21:04:04.117Z,102982.47
2023-04-02T21:06:33.038Z,102987.75
2023-04-02T21:09:01.765Z,102997.38
2023-04-02T21:11:28.468Z,102999.97
2023-04-02T21:13:55.041Z,103004.34
2023-04-02T21:16:24.020Z,103002.59
2023-04-02T21:18:52.210Z,103009.59
2023-04-02T21:21:19.544Z,103018.28
2023-04-02T21:23:46.338Z,103016.53
2023-04-02T21:26:17.461Z,103013.00
2023-04-02T21:28:45.306Z,103013.84
2023-04-02T21:31:13.376Z,103018.22
2023-04-02T21:33:42.722Z,103023.50
2023-04-02T21:36:11.540Z,103022.63
2023-04-02T21:38:42.865Z,103008.59
2023-04-02T21:41:14.022Z,103020.84
2023-04-02T21:43:40.635Z,103021.72
2023-04-02T21:46:07.240Z,103024.38
2023-04-02T21:48:33.814Z,103021.69
2023-04-02T21:51:11.652Z,103018.09
2023-04-02T21:53:38.961Z,103025.91
2023-04-02T21:56:11.854Z,103025.88
2023-04-02T21:58:38.423Z,103020.53
2023-04-02T22:01:09.008Z,103017.91
2023-04-02T22:03:38.602Z,103024.84
2023-04-02T22:06:17.375Z,103029.22
2023-04-02T22:08:44.795Z,103023.91
2023-04-02T22:11:19.884Z,103030.91
2023-04-02T22:13:47.956Z,103035.19
2023-04-02T22:16:19.036Z,103029.97
2023-04-02T22:18:45.860Z,103036.09
2023-04-02T22:21:13.098Z,103040.41
2023-04-02T22:23:41.190Z,103038.63
2023-04-02T22:26:09.246Z,103039.44
2023-04-02T22:28:36.234Z,103035.94
2023-04-02T22:31:06.333Z,103036.81
2023-04-02T22:33:33.578Z,103026.25
2023-04-02T22:36:00.346Z,103027.06
2023-04-02T22:38:27.325Z,103037.47
2023-04-02T22:41:12.923Z,103037.47
2023-04-02T22:43:40.669Z,103034.84
2023-04-02T22:46:09.095Z,103033.13
2023-04-02T22:48:36.297Z,103032.16
2023-04-02T22:51:03.046Z,103033.94
2023-04-02T22:53:29.568Z,103028.69
2023-04-02T22:56:01.924Z,103036.47
2023-04-02T22:58:28.553Z,103036.44
2023-04-02T23:00:55.067Z,103043.34
2023-04-02T23:03:21.550Z,103040.72
2023-04-02T23:05:58.591Z,103049.41
2023-04-02T23:08:25.284Z,103045.06
2023-04-02T23:10:52.174Z,103042.41
2023-04-02T23:13:18.688Z,103052.81
2023-04-02T23:15:45.169Z,103060.66
2023-04-02T23:18:11.651Z,103052.75
2023-04-02T23:20:38.453Z,103052.72
2023-04-02T23:23:05.393Z,103047.47
2023-04-02T23:25:31.894Z,103056.13
2023-04-02T23:27:58.415Z,103053.47
2023-04-02T23:30:25.118Z,103052.53
2023-04-02T23:32:51.646Z,103053.38
2023-04-02T23:35:18.138Z,103060.38
2023-04-02T23:37:44.652Z,103058.59
2023-04-02T23:40:11.518Z,103055.06
2023-04-02T23:42:38.105Z,103054.09
2023-04-02T23:45:04.982Z,103052.31
2023-04-02T23:47:31.547Z,103056.66
2023-04-02T23:49:58.088Z,103057.50
2023-04-02T23:52:24.623Z,103058.28
2023-04-02T23:54:51.116Z,103060.88
2023-04-02T23:57:17.894Z,103066.13
2023-04-02T23:59:44.432Z,103065.19
